Relevés horaires Bierset (Belgique)


Relevés horaires à Bierset - Lundi 24 Avr. 2017
Heure UTC1 Température [°C] Vent [km/h] Hum. [%] Pres.4 [hPa] Visi. [Km] Nébu. [octa] Préc.5 [mm] Cond.
2m. Res. Ros. Dir.2 Vit. Moy. Raf.3
23:00 9.1 7.7 4.0 OSO 9.3 9.3 13.0 70 1008.4(-1.9/3h) 30 8/8 -- --
22:00 9.2 8.7 3.5 SO 5.6 7.4 7.4 67 1008.8(-1.8/3h) 30 8/8 -- --
21:00 9.1 8.6 3.1 OSO 5.6 7.4 11.1 66 1009.7(-1.5/3h) 30 8/8 -- --
20:00 11.3 11.1 3.3 O 5.6 7.4 9.3 58 1010.2(-1.2/3h) 30 8/8 -- --
19:00 11.9 11.8 3.2 O 5.6 7.4 11.1 55 1010.5(-1.4/3h) 30 7/8 -- --
18:00 12.7 12.7 2.2 ONO 5.6 11.1 18.5 49 1011(-1.6/3h) 30 7/8 0/12h
--
17:00 13.2 12.9 0.5 O 7.4 9.3 14.8 42 1011.3(-2.2/3h) 30 7/8 -- --
16:00 14.5 14.1 1.2 O 9.3 11.1 16.7 40 1011.7(-2.9/3h) 30 7/8 -- --
15:00 14.5 14.1 1.2 OSO 9.3 11.1 18.5 40 1012.5(-3.0/3h) 30 7/8 -- --
14:00 14.6 14.2 1.5 O 9.3 9.3 18.5 41 1013.5(-3.0/3h) 30 7/8 -- --
13:00 13.9 13.7 1.6 O 7.4 11.1 14.8 43 1014.7(-2.7/3h) 30 6/8 -- --
12:00 13.1 12.8 0.6 SO 7.4 11.1 14.8 42 1015.7(-2.4/3h) 30 6/8 0/6h
--
11:00 12.8 12.8 0.8 SSO 5.6 9.3 14.8 44 1016.7(-1.9/3h) 30 4/8 -- --
10:00 12.1 11.2 0.3 OSO 9.3 11.1 14.8 44 1017.7(-1.7/3h) 30 4/8 -- --
09:00 10.9 9.8 0.1 OSO 9.3 11.1 14.8 47 1018.3(-1.2/3h) 30 6/8 -- --
08:00 8.8 7.3 -1.2 SO 9.3 11.1 13.0 49 1018.9(-0.7/3h) 30 6/8 -- --
07:00 6.1 4.6 -1.3 SSO 7.4 7.4 14.8 59 1019.9(-0.6/3h) 30 4/8 -- --
06:00 3.8 2.5 -1.7 S 5.6 7.4 16.7 67 1020.1(-1.2/3h) 30 2/8 0/12h
--
05:00 2.9 0.8 -1.8 SSE 7.4 7.4 13.0 71 1020.2(-1.9/3h) 40 2/8 -- --
04:00 3.1 1.1 -1.8 S 7.4 7.4 13.0 70 1020.7(-1.9/3h) 40 5/8 -- --
03:00 3.2 1.8 -1.0 S 5.6 5.6 16.7 74 1021.4(-2.0/3h) 40 5/8 -- --
02:00 3.5 2.1 -0.6 SSE 5.6 5.6 14.8 74 1022(-2.0/3h) 40 3/8 -- --
01:00 3.9 2.6 0.2 SSE 5.6 5.6 16.7 77 1022.6(-2.0/3h) 40 3/8 -- --
00:00 4.9 3.7 0.3 SSE 5.6 5.6 13.0 72 1023.3(-1.8/3h) 40 3/8 0/6h
0/24h
--

1 Coordinated Universal Time. Actuellement il est 22:00 locale et 20:00 UTC.

2 Le vent souffle depuis la direction indiquée vers la direction oposée.

3 Les rafales max. sont disponible 40 min après l'heure du relevé.

4 Pour les stations d'altitude (plus de 600m) le géopotentiel du niveau le plus proche de la pression obligatoire est indiqué.

5 Les stations disposant d'un diffuseur peuvent indiquer "trace". Cela signifie que des précipitations ont touchés le sol mais que la quantité est inférieure à 0.1 mm.

Récapitulatif de la journée
Température [°C] Vent [km/h] Ensoleillement4 [h] Precipitations totale5 [mm] Pression [Hpa]
Min1 Max.2 Moy.3 Max. Min Max.
2.9 15.0 8.7 18.5 0 h 0 min 0 1008.4 1023.3

1 Température minimale relevée entre 18:00 UTC la veille et 18:00 UTC le jour donné.

2 Température maximale relevée entre 06:00 UTC le jour donné et 06:00 UTC le lendemain.

3 Vent moyen de la journée basé sur les relevés horaires.

4 Ensoleillement en heures relevé entre 06:00 UTC la veille et 06:00 UTC le jour donné.

5 Précipitations totales tombées entre 06:00 UTC la jour donné et 06:00 UTC le lendemain.

Graphiques horaires